createdAt,value
2023-02-28T00:00:02.928Z,989.15
2023-02-28T00:01:03.891Z,989.20
2023-02-28T00:02:03.035Z,989.31
2023-02-28T00:03:03.058Z,989.37
2023-02-28T00:04:03.891Z,989.17
2023-02-28T00:05:03.876Z,989.31
2023-02-28T00:06:03.880Z,989.17
2023-02-28T00:07:03.794Z,989.20
2023-02-28T00:08:03.749Z,989.23
2023-02-28T00:09:03.766Z,989.15
2023-02-28T00:10:03.687Z,989.20
2023-02-28T00:11:03.907Z,989.31
2023-02-28T00:12:03.764Z,989.04
2023-02-28T00:13:03.848Z,989.20
2023-02-28T00:14:03.834Z,989.15
2023-02-28T00:15:03.847Z,989.23
2023-02-28T00:16:03.874Z,989.23
2023-02-28T00:17:03.807Z,989.23
2023-02-28T00:18:03.803Z,989.23
2023-02-28T00:19:03.839Z,989.09
2023-02-28T00:20:03.858Z,989.23
2023-02-28T00:21:03.841Z,989.06
2023-02-28T00:22:03.854Z,989.23
2023-02-28T00:23:03.890Z,989.15
2023-02-28T00:24:03.897Z,989.15
2023-02-28T00:25:03.896Z,989.09
2023-02-28T00:26:03.917Z,989.09
2023-02-28T00:27:03.837Z,989.12
2023-02-28T00:28:03.901Z,989.26
2023-02-28T00:29:03.878Z,989.37
2023-02-28T00:30:03.863Z,989.20
2023-02-28T00:31:03.955Z,989.34
2023-02-28T00:32:03.880Z,989.23
2023-02-28T00:33:03.962Z,989.17
2023-02-28T00:34:03.861Z,989.29
2023-02-28T00:35:03.838Z,989.26
2023-02-28T00:36:03.867Z,989.34
2023-02-28T00:37:03.741Z,989.26
2023-02-28T00:38:03.851Z,989.31
2023-02-28T00:39:03.786Z,989.29
2023-02-28T00:40:03.837Z,989.40
2023-02-28T00:41:03.778Z,989.37
2023-02-28T00:42:03.656Z,989.26
2023-02-28T00:43:03.763Z,989.17
2023-02-28T00:44:03.745Z,989.09
2023-02-28T00:45:03.791Z,989.20
2023-02-28T00:46:03.798Z,989.29
2023-02-28T00:47:03.727Z,989.23
2023-02-28T00:48:03.667Z,989.29
2023-02-28T00:49:03.714Z,989.20
2023-02-28T00:50:03.663Z,989.12
2023-02-28T00:51:03.640Z,989.18
2023-02-28T00:52:03.756Z,989.18
2023-02-28T00:53:03.796Z,989.20
2023-02-28T00:54:03.845Z,989.18
2023-02-28T00:55:03.883Z,989.23
2023-02-28T00:56:02.991Z,989.06
2023-02-28T00:57:02.995Z,989.29
2023-02-28T00:58:03.016Z,989.09
2023-02-28T00:59:03.011Z,989.09
2023-02-28T01:00:02.985Z,989.29
2023-02-28T01:01:03.183Z,989.12
2023-02-28T01:02:03.034Z,989.01
2023-02-28T01:03:03.043Z,989.04
2023-02-28T01:04:02.989Z,989.23
2023-02-28T01:05:02.996Z,989.04
2023-02-28T01:06:02.994Z,989.20
2023-02-28T01:07:02.951Z,989.12
2023-02-28T01:08:03.032Z,989.20
2023-02-28T01:09:03.103Z,989.09
2023-02-28T01:10:03.579Z,989.09
2023-02-28T01:11:03.491Z,989.15
2023-02-28T01:12:03.623Z,989.01
2023-02-28T01:13:03.554Z,989.09
2023-02-28T01:14:03.449Z,989.04
2023-02-28T01:15:03.541Z,989.07
2023-02-28T01:16:03.588Z,989.09
2023-02-28T01:17:03.554Z,989.09
2023-02-28T01:18:03.540Z,989.15
2023-02-28T01:19:03.645Z,989.23
2023-02-28T01:20:03.757Z,989.09
2023-02-28T01:21:03.672Z,989.09
2023-02-28T01:22:03.664Z,989.07
2023-02-28T01:23:03.701Z,989.15
2023-02-28T01:24:03.705Z,989.12
2023-02-28T01:25:03.729Z,989.15
2023-02-28T01:26:03.615Z,989.04
2023-02-28T01:27:03.579Z,989.15
2023-02-28T01:28:03.719Z,989.04
2023-02-28T01:29:03.643Z,988.98
2023-02-28T01:30:03.654Z,989.09
2023-02-28T01:31:03.730Z,989.04
2023-02-28T01:32:03.712Z,988.96
2023-02-28T01:33:03.585Z,988.79
2023-02-28T01:34:03.618Z,988.93
2023-02-28T01:35:03.659Z,988.87
2023-02-28T01:36:03.773Z,989.12
2023-02-28T01:37:03.560Z,988.93
2023-02-28T01:38:22.772Z,989.10
2023-02-28T01:39:03.546Z,988.93
2023-02-28T01:40:03.556Z,989.15
2023-02-28T01:41:03.612Z,989.01
2023-02-28T01:42:03.694Z,989.01
2023-02-28T01:43:03.827Z,989.01
2023-02-28T01:44:03.816Z,989.01
2023-02-28T01:45:03.766Z,988.96
2023-02-28T01:46:03.989Z,988.90
2023-02-28T01:47:02.957Z,988.93
2023-02-28T01:48:03.044Z,989.04
2023-02-28T01:49:03.022Z,988.99
2023-02-28T01:50:03.118Z,989.07
2023-02-28T01:51:03.237Z,989.07
2023-02-28T01:52:03.222Z,988.90
2023-02-28T01:53:03.169Z,988.96
2023-02-28T01:54:03.239Z,988.82
2023-02-28T01:55:03.507Z,989.07
2023-02-28T01:56:03.486Z,988.99
2023-02-28T01:57:03.557Z,988.93
2023-02-28T01:58:03.574Z,989.07
2023-02-28T01:59:03.894Z,988.99
2023-02-28T02:00:03.770Z,988.93
2023-02-28T02:01:03.842Z,988.99
2023-02-28T02:02:03.902Z,988.85
2023-02-28T02:03:04.003Z,988.79
2023-02-28T02:04:03.955Z,988.79
2023-02-28T02:05:03.070Z,988.85
2023-02-28T02:06:02.960Z,988.77
2023-02-28T02:07:02.945Z,988.79
2023-02-28T02:08:02.999Z,988.88
2023-02-28T02:09:02.954Z,988.74
2023-02-28T02:10:03.073Z,988.85
2023-02-28T02:11:03.006Z,988.82
2023-02-28T02:12:03.056Z,988.68
2023-02-28T02:13:03.076Z,988.85
2023-02-28T02:14:03.117Z,988.77
2023-02-28T02:15:03.048Z,988.82
2023-02-28T02:16:03.233Z,988.96
2023-02-28T02:17:03.313Z,988.79
2023-02-28T02:18:03.276Z,988.79
2023-02-28T02:19:03.293Z,988.74
2023-02-28T02:20:03.374Z,988.77
2023-02-28T02:21:03.321Z,988.71
2023-02-28T02:22:03.427Z,988.88
2023-02-28T02:23:03.327Z,988.79
2023-02-28T02:24:03.307Z,988.77
2023-02-28T02:25:03.326Z,988.74
2023-02-28T02:26:03.370Z,988.68
2023-02-28T02:27:03.501Z,988.66
2023-02-28T02:28:03.444Z,988.77
2023-02-28T02:29:03.373Z,988.68
2023-02-28T02:30:03.474Z,988.77
2023-02-28T02:31:03.557Z,988.63
2023-02-28T02:32:03.534Z,988.63
2023-02-28T02:33:03.390Z,988.71
2023-02-28T02:34:03.477Z,988.60
2023-02-28T02:35:03.443Z,988.57
2023-02-28T02:36:03.556Z,988.74
2023-02-28T02:37:03.450Z,988.63
2023-02-28T02:38:03.491Z,988.57
2023-02-28T02:39:03.364Z,988.54
2023-02-28T02:40:03.359Z,988.60
2023-02-28T02:41:03.442Z,988.63
2023-02-28T02:42:03.397Z,988.49
2023-02-28T02:43:03.411Z,988.57
2023-02-28T02:44:03.396Z,988.46
2023-02-28T02:45:03.471Z,988.60
2023-02-28T02:46:03.426Z,988.57
2023-02-28T02:47:03.520Z,988.49
2023-02-28T02:48:03.519Z,988.54
2023-02-28T02:49:03.476Z,988.66
2023-02-28T02:50:03.389Z,988.60
2023-02-28T02:51:03.359Z,988.60
2023-02-28T02:52:03.392Z,988.74
2023-02-28T02:53:03.332Z,988.66
2023-02-28T02:54:03.477Z,988.66
2023-02-28T02:55:03.483Z,988.46
2023-02-28T02:56:03.437Z,988.49
2023-02-28T02:57:03.402Z,988.57
2023-02-28T02:58:03.354Z,988.77
2023-02-28T02:59:03.324Z,988.79
2023-02-28T03:00:03.348Z,988.77
2023-02-28T03:01:03.549Z,988.60
2023-02-28T03:02:03.455Z,988.54
2023-02-28T03:03:03.428Z,988.66
2023-02-28T03:04:03.637Z,988.71
2023-02-28T03:05:03.375Z,988.79
2023-02-28T03:06:03.463Z,988.52
2023-02-28T03:07:03.427Z,988.77
2023-02-28T03:08:03.521Z,988.85
2023-02-28T03:09:03.573Z,988.66
2023-02-28T03:10:03.492Z,988.68
2023-02-28T03:11:03.446Z,988.63
2023-02-28T03:12:03.457Z,988.68
2023-02-28T03:13:03.471Z,988.63
2023-02-28T03:14:03.538Z,988.71
2023-02-28T03:15:03.607Z,988.68
2023-02-28T03:16:03.737Z,988.77
2023-02-28T03:17:03.565Z,988.66
2023-02-28T03:18:03.627Z,988.79
2023-02-28T03:19:03.662Z,988.63
2023-02-28T03:20:03.565Z,988.63
2023-02-28T03:21:03.640Z,988.71
2023-02-28T03:22:03.719Z,988.57
2023-02-28T03:23:03.826Z,988.63
2023-02-28T03:24:03.923Z,988.60
2023-02-28T03:25:03.872Z,988.66
2023-02-28T03:26:03.877Z,988.68
2023-02-28T03:27:02.917Z,988.60
2023-02-28T03:28:03.361Z,988.54
2023-02-28T03:29:03.767Z,988.60
2023-02-28T03:30:03.789Z,988.57
2023-02-28T03:31:03.680Z,988.68
2023-02-28T03:32:03.872Z,988.63
2023-02-28T03:33:03.704Z,988.77
2023-02-28T03:34:03.674Z,988.82
2023-02-28T03:35:03.721Z,988.71
2023-02-28T03:36:03.771Z,988.54
2023-02-28T03:37:03.828Z,988.63
2023-02-28T03:38:03.863Z,988.68
2023-02-28T03:39:03.804Z,988.60
2023-02-28T03:40:03.799Z,988.77
2023-02-28T03:41:03.854Z,988.74
2023-02-28T03:42:03.922Z,988.49
2023-02-28T03:43:02.921Z,988.66
2023-02-28T03:44:02.955Z,988.52
2023-02-28T03:45:03.037Z,988.52
2023-02-28T03:46:03.177Z,988.71
2023-02-28T03:47:03.948Z,988.71
2023-02-28T03:48:02.975Z,988.57
2023-02-28T03:49:03.917Z,988.66
2023-02-28T03:50:03.872Z,988.57
2023-02-28T03:51:03.927Z,988.60
2023-02-28T03:52:03.943Z,988.60
2023-02-28T03:53:03.963Z,988.63
2023-02-28T03:54:03.942Z,988.60
2023-02-28T03:55:03.932Z,988.41
2023-02-28T03:56:03.821Z,988.82
2023-02-28T03:57:03.901Z,988.71
2023-02-28T03:58:03.807Z,988.68
2023-02-28T03:59:03.755Z,988.71
2023-02-28T04:00:03.871Z,988.77
2023-02-28T04:01:03.012Z,988.63
2023-02-28T04:02:02.977Z,988.63
2023-02-28T04:03:02.996Z,988.66
2023-02-28T04:04:04.125Z,988.57
2023-02-28T04:05:03.868Z,988.79
2023-02-28T04:06:02.924Z,988.66
2023-02-28T04:07:02.982Z,988.60
2023-02-28T04:08:03.035Z,988.71
2023-02-28T04:09:02.959Z,988.63
2023-02-28T04:10:03.938Z,988.68
2023-02-28T04:11:02.949Z,988.68
2023-02-28T04:12:03.038Z,988.63
2023-02-28T04:13:03.066Z,988.52
2023-02-28T04:14:02.936Z,988.66
2023-02-28T04:15:02.945Z,988.68
2023-02-28T04:16:03.966Z,988.68
2023-02-28T04:17:03.901Z,988.74
2023-02-28T04:18:03.890Z,988.77
2023-02-28T04:19:03.945Z,988.71
2023-02-28T04:20:03.890Z,988.66
2023-02-28T04:21:03.945Z,988.71
2023-02-28T04:22:03.902Z,988.80
2023-02-28T04:23:03.855Z,988.66
2023-02-28T04:24:03.089Z,988.63
2023-02-28T04:25:03.037Z,988.60
2023-02-28T04:26:03.021Z,988.63
2023-02-28T04:27:03.166Z,988.60
2023-02-28T04:28:03.219Z,988.88
2023-02-28T04:29:03.104Z,988.77
2023-02-28T04:30:03.181Z,988.69
2023-02-28T04:31:03.216Z,988.66
2023-02-28T04:32:03.561Z,988.80
2023-02-28T04:33:03.147Z,988.88
2023-02-28T04:34:03.017Z,988.69
2023-02-28T04:35:03.236Z,988.85
2023-02-28T04:36:03.307Z,988.91
2023-02-28T04:37:14.272Z,988.77
2023-02-28T04:38:03.179Z,988.83
2023-02-28T04:39:03.094Z,988.69
2023-02-28T04:40:03.058Z,988.88
2023-02-28T04:41:03.117Z,988.80
2023-02-28T04:42:03.035Z,988.88
2023-02-28T04:43:02.939Z,988.94
2023-02-28T04:44:02.976Z,988.83
2023-02-28T04:45:04.007Z,988.99
2023-02-28T04:46:04.001Z,988.94
2023-02-28T04:47:03.803Z,988.88
2023-02-28T04:48:03.883Z,988.99
2023-02-28T04:49:03.865Z,988.88
2023-02-28T04:50:03.820Z,988.83
2023-02-28T04:51:03.015Z,989.05
2023-02-28T04:52:03.923Z,988.99
2023-02-28T04:53:02.915Z,988.83
2023-02-28T04:54:02.993Z,989.02
2023-02-28T04:55:03.074Z,988.80
2023-02-28T04:56:03.061Z,989.00
2023-02-28T04:57:03.153Z,988.91
2023-02-28T04:58:03.310Z,989.02
2023-02-28T04:59:03.264Z,988.88
2023-02-28T05:00:03.214Z,988.86
2023-02-28T05:01:03.277Z,988.91
2023-02-28T05:02:03.829Z,988.94
2023-02-28T05:03:03.847Z,988.83
2023-02-28T05:04:03.835Z,988.77
2023-02-28T05:05:04.013Z,988.89
2023-02-28T05:06:03.844Z,988.89
2023-02-28T05:07:03.814Z,988.89
2023-02-28T05:08:03.921Z,989.00
2023-02-28T05:09:03.968Z,988.83
2023-02-28T05:10:06.451Z,989.00
2023-02-28T05:11:03.858Z,988.89
2023-02-28T05:12:03.801Z,988.86
2023-02-28T05:13:03.872Z,988.91
2023-02-28T05:14:03.893Z,989.08
2023-02-28T05:15:03.818Z,988.89
2023-02-28T05:16:03.945Z,988.91
2023-02-28T05:17:03.896Z,988.89
2023-02-28T05:18:03.780Z,988.78
2023-02-28T05:19:03.922Z,988.83
2023-02-28T05:20:16.258Z,989.00
2023-02-28T05:21:03.838Z,988.80
2023-02-28T05:22:03.802Z,989.00
2023-02-28T05:23:03.964Z,989.02
2023-02-28T05:24:03.930Z,988.91
2023-02-28T05:25:04.173Z,988.86
2023-02-28T05:26:03.083Z,988.91
2023-02-28T05:27:03.051Z,988.91
2023-02-28T05:28:03.143Z,988.97
2023-02-28T05:29:03.056Z,988.86
2023-02-28T05:30:03.102Z,988.89
2023-02-28T05:31:03.220Z,988.91
2023-02-28T05:32:03.396Z,988.75
2023-02-28T05:33:03.217Z,988.83
2023-02-28T05:34:03.234Z,988.83
2023-02-28T05:35:03.222Z,988.89
2023-02-28T05:36:03.444Z,989.08
2023-02-28T05:37:03.358Z,989.05
2023-02-28T05:38:03.355Z,989.03
2023-02-28T05:39:03.333Z,988.94
2023-02-28T05:40:03.362Z,988.97
2023-02-28T05:41:03.207Z,989.14
2023-02-28T05:42:03.434Z,989.00
2023-02-28T05:43:03.258Z,988.97
2023-02-28T05:44:03.301Z,989.05
2023-02-28T05:45:03.350Z,988.92
2023-02-28T05:46:03.477Z,989.00
2023-02-28T05:47:03.182Z,989.03
2023-02-28T05:48:03.197Z,989.00
2023-02-28T05:49:03.514Z,989.08
2023-02-28T05:50:03.259Z,989.05
2023-02-28T05:51:03.431Z,989.17
2023-02-28T05:52:03.258Z,988.97
2023-02-28T05:53:03.205Z,988.97
2023-02-28T05:54:03.225Z,989.14
2023-02-28T05:55:03.077Z,989.19
2023-02-28T05:56:03.008Z,989.03
2023-02-28T05:57:15.471Z,988.97
2023-02-28T05:58:03.045Z,989.06
2023-02-28T05:59:03.691Z,989.11
2023-02-28T06:00:03.705Z,989.06
2023-02-28T06:01:03.701Z,989.19
2023-02-28T06:02:03.796Z,989.08
2023-02-28T06:03:03.940Z,989.08
2023-02-28T06:04:03.927Z,989.14
2023-02-28T06:05:03.840Z,989.17
2023-02-28T06:06:03.800Z,989.11
2023-02-28T06:07:03.794Z,989.00
2023-02-28T06:08:03.760Z,989.11
2023-02-28T06:09:03.786Z,989.14
2023-02-28T06:10:03.788Z,989.03
2023-02-28T06:11:03.879Z,989.16
2023-02-28T06:12:03.850Z,989.25
2023-02-28T06:13:03.896Z,989.22
2023-02-28T06:14:04.014Z,989.08
2023-02-28T06:15:03.878Z,989.22
2023-02-28T06:16:03.866Z,989.25
2023-02-28T06:17:03.968Z,989.14
2023-02-28T06:18:03.858Z,989.33
2023-02-28T06:19:03.828Z,989.16
2023-02-28T06:20:03.698Z,989.19
2023-02-28T06:21:03.676Z,989.11
2023-02-28T06:22:03.814Z,989.14
2023-02-28T06:23:03.742Z,989.22
2023-02-28T06:24:03.781Z,989.16
2023-02-28T06:25:03.841Z,989.16
2023-02-28T06:26:03.830Z,989.25
2023-02-28T06:27:03.805Z,989.22
2023-02-28T06:28:03.830Z,989.25
2023-02-28T06:29:03.882Z,989.27
2023-02-28T06:30:03.838Z,989.30
2023-02-28T06:31:03.840Z,989.30
2023-02-28T06:32:03.870Z,989.33
2023-02-28T06:33:03.827Z,989.25
2023-02-28T06:34:03.678Z,989.36
2023-02-28T06:35:03.813Z,989.25
2023-02-28T06:36:03.849Z,989.41
2023-02-28T06:37:03.841Z,989.38
2023-02-28T06:38:03.787Z,989.41
2023-02-28T06:39:03.840Z,989.41
2023-02-28T06:40:03.963Z,989.58
2023-02-28T06:41:03.861Z,989.38
2023-02-28T06:42:03.870Z,989.33
2023-02-28T06:43:03.867Z,989.41
2023-02-28T06:44:03.781Z,989.47
2023-02-28T06:45:03.792Z,989.41
2023-02-28T06:46:03.960Z,989.44
2023-02-28T06:47:03.897Z,989.47
2023-02-28T06:48:03.784Z,989.47
2023-02-28T06:49:03.887Z,989.52
2023-02-28T06:50:03.913Z,989.44
2023-02-28T06:51:03.849Z,989.33
2023-02-28T06:52:03.921Z,989.58
2023-02-28T06:53:03.869Z,989.63
2023-02-28T06:54:03.991Z,989.52
2023-02-28T06:55:03.898Z,989.52
2023-02-28T06:56:03.853Z,989.60
2023-02-28T06:57:03.801Z,989.46
2023-02-28T06:58:03.732Z,989.46
2023-02-28T06:59:04.018Z,989.49
2023-02-28T07:00:03.869Z,989.60
2023-02-28T07:01:03.845Z,989.55
2023-02-28T07:02:03.858Z,989.63
2023-02-28T07:03:03.809Z,989.68
2023-02-28T07:04:03.781Z,989.66
2023-02-28T07:05:03.914Z,989.68
2023-02-28T07:06:03.801Z,989.66
2023-02-28T07:07:03.788Z,989.68
2023-02-28T07:08:03.869Z,989.66
2023-02-28T07:09:04.422Z,989.63
2023-02-28T07:10:03.884Z,989.70
2023-02-28T07:11:03.904Z,989.70
2023-02-28T07:12:03.927Z,989.60
2023-02-28T07:13:03.822Z,989.65
2023-02-28T07:14:03.864Z,989.78
2023-02-28T07:15:02.886Z,989.70
2023-02-28T07:16:03.240Z,989.60
2023-02-28T07:17:03.081Z,989.60
2023-02-28T07:18:03.071Z,989.75
2023-02-28T07:19:03.068Z,989.70
2023-02-28T07:20:03.018Z,989.68
2023-02-28T07:21:02.960Z,989.68
2023-02-28T07:22:02.974Z,989.73
2023-02-28T07:23:03.967Z,989.78
2023-02-28T07:24:02.964Z,989.84
2023-02-28T07:25:03.949Z,989.86
2023-02-28T07:26:03.892Z,989.73
2023-02-28T07:27:03.741Z,989.75
2023-02-28T07:28:03.678Z,989.62
2023-02-28T07:29:03.972Z,989.65
2023-02-28T07:30:03.952Z,989.89
2023-02-28T07:31:03.980Z,989.70
2023-02-28T07:32:03.988Z,989.68
2023-02-28T07:33:03.819Z,989.72
2023-02-28T07:34:03.907Z,989.78
2023-02-28T07:35:03.838Z,989.65
2023-02-28T07:36:04.011Z,989.72
2023-02-28T07:37:03.737Z,989.89
2023-02-28T07:38:03.813Z,989.89
2023-02-28T07:39:03.972Z,989.80
2023-02-28T07:40:03.961Z,989.78
2023-02-28T07:41:03.833Z,989.75
2023-02-28T07:42:03.658Z,989.69
2023-02-28T07:43:03.703Z,989.80
2023-02-28T07:44:03.674Z,989.72
2023-02-28T07:45:03.790Z,989.74
2023-02-28T07:46:03.777Z,989.67
2023-02-28T07:47:03.779Z,989.64
2023-02-28T07:48:03.660Z,989.82
2023-02-28T07:49:03.553Z,989.85
2023-02-28T07:50:03.626Z,989.74
2023-02-28T07:51:03.748Z,989.66
2023-02-28T07:52:03.664Z,989.74
2023-02-28T07:53:03.821Z,989.71
2023-02-28T07:54:03.890Z,989.90
2023-02-28T07:55:03.865Z,989.76
2023-02-28T07:56:03.961Z,989.74
2023-02-28T07:57:04.965Z,989.85
2023-02-28T07:58:03.866Z,989.85
2023-02-28T07:59:03.759Z,989.93
2023-02-28T08:00:03.826Z,989.98
2023-02-28T08:01:03.792Z,989.87
2023-02-28T08:02:03.857Z,990.04
2023-02-28T08:03:03.803Z,989.90
2023-02-28T08:04:03.961Z,989.98
2023-02-28T08:05:03.187Z,990.03
2023-02-28T08:06:03.921Z,989.98
2023-02-28T08:07:03.915Z,989.86
2023-02-28T08:08:03.884Z,989.86
2023-02-28T08:09:03.008Z,990.00
2023-02-28T08:10:02.947Z,990.03
2023-02-28T08:11:03.065Z,990.05
2023-02-28T08:12:03.237Z,990.08
2023-02-28T08:13:03.290Z,989.97
2023-02-28T08:14:03.388Z,990.16
2023-02-28T08:15:03.308Z,990.27
2023-02-28T08:16:03.484Z,990.22
2023-02-28T08:17:03.203Z,990.19
2023-02-28T08:18:03.235Z,990.27
2023-02-28T08:19:03.167Z,990.08
2023-02-28T08:20:03.197Z,990.30
2023-02-28T08:21:03.331Z,990.13
2023-02-28T08:22:03.301Z,990.36
2023-02-28T08:23:03.210Z,990.38
2023-02-28T08:24:03.348Z,990.44
2023-02-28T08:25:03.344Z,990.57
2023-02-28T08:26:03.334Z,990.38
2023-02-28T08:27:03.287Z,990.35
2023-02-28T08:28:03.275Z,990.38
2023-02-28T08:29:03.304Z,990.35
2023-02-28T08:30:03.263Z,990.44
2023-02-28T08:31:03.359Z,990.57
2023-02-28T08:32:03.487Z,990.60
2023-02-28T08:33:03.570Z,990.71
2023-02-28T08:34:03.546Z,990.51
2023-02-28T08:35:03.673Z,990.65
2023-02-28T08:36:04.017Z,990.71
2023-02-28T08:37:03.628Z,990.65
2023-02-28T08:38:03.838Z,990.62
2023-02-28T08:39:03.849Z,990.68
2023-02-28T08:40:03.696Z,990.54
2023-02-28T08:41:03.679Z,990.65
2023-02-28T08:42:08.324Z,990.70
2023-02-28T08:43:03.762Z,990.59
2023-02-28T08:44:03.875Z,990.84
2023-02-28T08:45:03.913Z,990.73
2023-02-28T08:46:04.121Z,990.73
2023-02-28T08:47:03.890Z,990.73
2023-02-28T08:48:03.931Z,990.81
2023-02-28T08:49:03.000Z,990.81
2023-02-28T08:50:03.056Z,990.81
2023-02-28T08:51:08.825Z,990.87
2023-02-28T08:52:03.101Z,990.76
2023-02-28T08:53:03.388Z,990.90
2023-02-28T08:54:03.284Z,990.81
2023-02-28T08:55:03.214Z,990.95
2023-02-28T08:56:03.258Z,990.95
2023-02-28T08:57:03.247Z,991.01
2023-02-28T08:58:03.165Z,991.20
2023-02-28T08:59:03.278Z,991.09
2023-02-28T09:00:03.094Z,991.03
2023-02-28T09:01:03.179Z,991.17
2023-02-28T09:02:03.143Z,991.31
2023-02-28T09:03:03.200Z,991.06
2023-02-28T09:04:03.114Z,991.23
2023-02-28T09:05:03.154Z,991.23
2023-02-28T09:06:03.159Z,991.14
2023-02-28T09:07:03.156Z,991.20
2023-02-28T09:08:03.262Z,991.26
2023-02-28T09:09:03.400Z,991.17
2023-02-28T09:10:03.534Z,991.31
2023-02-28T09:11:03.843Z,991.37
2023-02-28T09:12:03.470Z,991.40
2023-02-28T09:13:03.421Z,991.42
2023-02-28T09:14:03.424Z,991.34
2023-02-28T09:15:03.322Z,991.42
2023-02-28T09:16:03.325Z,991.20
2023-02-28T09:17:06.377Z,991.49
2023-02-28T09:18:03.350Z,991.28
2023-02-28T09:19:03.408Z,991.45
2023-02-28T09:20:03.589Z,991.31
2023-02-28T09:21:03.517Z,991.36
2023-02-28T09:22:03.374Z,991.45
2023-02-28T09:23:03.538Z,991.45
2023-02-28T09:24:03.499Z,991.63
2023-02-28T09:25:03.471Z,991.52
2023-02-28T09:26:03.363Z,991.52
2023-02-28T09:27:06.082Z,991.47
2023-02-28T09:28:03.585Z,991.58
2023-02-28T09:29:03.569Z,991.60
2023-02-28T09:30:03.491Z,991.77
2023-02-28T09:31:03.835Z,991.58
2023-02-28T09:32:03.722Z,991.55
2023-02-28T09:33:03.642Z,991.74
2023-02-28T09:34:03.760Z,991.66
2023-02-28T09:35:03.704Z,991.63
2023-02-28T09:36:03.813Z,991.55
2023-02-28T09:37:03.882Z,991.66
2023-02-28T09:38:03.764Z,991.55
2023-02-28T09:39:03.805Z,991.49
2023-02-28T09:40:03.819Z,991.74
2023-02-28T09:41:03.865Z,991.71
2023-02-28T09:42:02.963Z,991.63
2023-02-28T09:43:03.896Z,991.66
2023-02-28T09:44:03.010Z,991.60
2023-02-28T09:45:02.934Z,991.80
2023-02-28T09:46:03.009Z,991.71
2023-02-28T09:47:02.958Z,991.68
2023-02-28T09:48:03.124Z,991.91
2023-02-28T09:49:03.066Z,991.63
2023-02-28T09:50:03.028Z,991.80
2023-02-28T09:51:03.000Z,991.77
2023-02-28T09:52:03.150Z,991.74
2023-02-28T09:53:03.149Z,991.88
2023-02-28T09:54:03.061Z,991.85
2023-02-28T09:55:02.986Z,991.77
2023-02-28T09:56:03.053Z,991.88
2023-02-28T09:57:03.019Z,991.79
2023-02-28T09:58:03.070Z,991.77
2023-02-28T09:59:03.017Z,991.85
2023-02-28T10:00:02.985Z,991.99
2023-02-28T10:01:03.065Z,991.93
2023-02-28T10:02:03.113Z,991.99
2023-02-28T10:03:03.911Z,991.99
2023-02-28T10:04:02.919Z,992.02
2023-02-28T10:05:03.216Z,991.96
2023-02-28T10:06:03.030Z,991.82
2023-02-28T10:07:03.043Z,991.85
2023-02-28T10:08:03.079Z,991.96
2023-02-28T10:09:03.075Z,991.93
2023-02-28T10:10:03.123Z,992.18
2023-02-28T10:11:03.154Z,991.98
2023-02-28T10:12:03.171Z,991.95
2023-02-28T10:13:03.035Z,991.98
2023-02-28T10:14:03.097Z,992.18
2023-02-28T10:15:03.011Z,992.15
2023-02-28T10:16:03.184Z,992.12
2023-02-28T10:17:03.087Z,992.09
2023-02-28T10:18:09.932Z,992.04
2023-02-28T10:19:03.102Z,992.23
2023-02-28T10:20:03.173Z,992.26
2023-02-28T10:21:03.181Z,992.06
2023-02-28T10:22:03.139Z,992.23
2023-02-28T10:23:03.257Z,992.15
2023-02-28T10:24:03.144Z,992.17
2023-02-28T10:25:05.853Z,992.23
2023-02-28T10:26:03.220Z,992.29
2023-02-28T10:27:03.205Z,992.23
2023-02-28T10:28:03.356Z,992.37
2023-02-28T10:29:03.271Z,992.29
2023-02-28T10:30:03.373Z,992.35
2023-02-28T10:31:03.530Z,992.43
2023-02-28T10:32:03.539Z,992.40
2023-02-28T10:33:03.736Z,992.35
2023-02-28T10:34:03.533Z,992.21
2023-02-28T10:35:03.750Z,992.29
2023-02-28T10:36:03.827Z,992.27
2023-02-28T10:37:03.741Z,992.46
2023-02-28T10:38:03.816Z,992.43
2023-02-28T10:39:03.788Z,992.43
2023-02-28T10:40:03.743Z,992.38
2023-02-28T10:41:03.777Z,992.35
2023-02-28T10:42:03.914Z,992.41
2023-02-28T10:43:03.911Z,992.32
2023-02-28T10:44:03.964Z,992.35
2023-02-28T10:45:03.888Z,992.29
2023-02-28T10:46:03.833Z,992.32
2023-02-28T10:47:03.766Z,992.40
2023-02-28T10:48:03.852Z,992.29
2023-02-28T10:49:03.832Z,992.35
2023-02-28T10:50:03.642Z,992.23
2023-02-28T10:51:03.655Z,992.20
2023-02-28T10:52:03.722Z,992.32
2023-02-28T10:53:06.097Z,992.20
2023-02-28T10:54:03.872Z,992.31
2023-02-28T10:55:03.901Z,992.31
2023-02-28T10:56:03.833Z,992.37
2023-02-28T10:57:03.885Z,992.23
2023-02-28T10:58:03.844Z,992.51
2023-02-28T10:59:03.892Z,992.28
2023-02-28T11:00:03.927Z,992.31
2023-02-28T11:01:03.807Z,992.40
2023-02-28T11:02:04.384Z,992.54
2023-02-28T11:03:03.715Z,992.45
2023-02-28T11:04:03.820Z,992.31
2023-02-28T11:05:03.935Z,992.14
2023-02-28T11:06:03.790Z,992.28
2023-02-28T11:07:03.799Z,992.25
2023-02-28T11:08:03.759Z,992.48
2023-02-28T11:09:03.713Z,992.20
2023-02-28T11:10:03.694Z,992.23
2023-02-28T11:11:03.618Z,992.08
2023-02-28T11:12:03.665Z,992.22
2023-02-28T11:13:03.734Z,992.28
2023-02-28T11:14:03.590Z,992.39
2023-02-28T11:15:03.708Z,992.23
2023-02-28T11:16:03.839Z,992.28
2023-02-28T11:17:03.766Z,992.28
2023-02-28T11:18:03.776Z,992.28
2023-02-28T11:19:03.765Z,992.23
2023-02-28T11:20:03.732Z,992.28
2023-02-28T11:21:03.572Z,992.25
2023-02-28T11:22:03.704Z,992.39
2023-02-28T11:23:03.677Z,992.11
2023-02-28T11:24:03.629Z,992.28
2023-02-28T11:25:03.640Z,992.14
2023-02-28T11:26:03.638Z,992.11
2023-02-28T11:27:03.581Z,992.23
2023-02-28T11:28:03.672Z,992.31
2023-02-28T11:29:03.612Z,992.14
2023-02-28T11:30:03.672Z,992.20
2023-02-28T11:31:03.968Z,992.23
2023-02-28T11:32:03.917Z,992.00
2023-02-28T11:33:03.844Z,992.17
2023-02-28T11:34:03.854Z,992.00
2023-02-28T11:35:03.831Z,992.11
2023-02-28T11:36:04.002Z,992.23
2023-02-28T11:37:02.928Z,992.00
2023-02-28T11:38:03.049Z,992.08
2023-02-28T11:39:03.081Z,992.11
2023-02-28T11:40:03.248Z,992.00
2023-02-28T11:41:03.319Z,992.11
2023-02-28T11:42:03.402Z,991.97
2023-02-28T11:43:03.359Z,991.97
2023-02-28T11:44:03.426Z,992.03
2023-02-28T11:45:03.378Z,992.06
2023-02-28T11:46:03.378Z,991.89
2023-02-28T11:47:03.431Z,992.00
2023-02-28T11:48:03.512Z,992.03
2023-02-28T11:49:03.522Z,991.89
2023-02-28T11:50:03.530Z,992.11
2023-02-28T11:51:03.417Z,991.97
2023-02-28T11:52:03.435Z,992.14
2023-02-28T11:53:03.482Z,992.00
2023-02-28T11:54:03.491Z,991.94
2023-02-28T11:55:03.399Z,991.86
2023-02-28T11:56:03.275Z,991.97
2023-02-28T11:57:03.388Z,991.94
2023-02-28T11:58:03.196Z,992.11
2023-02-28T11:59:03.167Z,992.03
2023-02-28T12:00:03.104Z,991.92
2023-02-28T12:01:03.182Z,991.91
2023-02-28T12:02:03.238Z,991.86
2023-02-28T12:03:03.267Z,991.77
2023-02-28T12:04:03.008Z,992.11
2023-02-28T12:05:02.958Z,991.77
2023-02-28T12:06:03.068Z,991.86
2023-02-28T12:07:02.940Z,991.91
2023-02-28T12:08:02.988Z,991.91
2023-02-28T12:09:02.980Z,991.94
2023-02-28T12:10:03.886Z,991.94
2023-02-28T12:11:03.830Z,991.91
2023-02-28T12:12:03.842Z,991.80
2023-02-28T12:13:03.683Z,991.97
2023-02-28T12:14:03.634Z,991.94
2023-02-28T12:15:03.559Z,991.89
2023-02-28T12:16:03.584Z,991.89
2023-02-28T12:17:03.535Z,991.91
2023-02-28T12:18:03.374Z,991.97
2023-02-28T12:19:03.331Z,991.97
2023-02-28T12:20:03.435Z,991.94
2023-02-28T12:21:03.477Z,991.94
2023-02-28T12:22:03.259Z,992.05
2023-02-28T12:23:03.276Z,992.00
2023-02-28T12:24:03.373Z,992.02
2023-02-28T12:25:03.258Z,991.86
2023-02-28T12:26:03.298Z,991.80
2023-02-28T12:27:03.183Z,991.91
2023-02-28T12:28:03.195Z,991.88